BLF1050 ULPB-UUWW
Flight info
| Callsign | BLF1050 |
|---|---|
| Flight time | 1h 20m |
| Altitude | 35000 |
| Route | PEMEM2E PEMEM T785 RUROS L264 UREPI/K0832F340 P65 ROMTA ROMTA3B |
| Aircraft | B738/M-SDE2E3FGHIRWXY/LB1 |
Departure
| Time | 2026-04-21 19:16 |
|---|---|
| Airport | Petrozavodsk Airport (ULPB) |
Arrival
| Time | 2026-04-21 20:36 |
|---|---|
| Airport | Vnukovo International Airport (UUWW) |
| Time | Latitude | Longitude | Altitude | Speed | Heading |
|---|---|---|---|---|---|
| 2026-04-21 18:46 | 61.87758 | 34.15433 | 155 ft | 0 kts | 112° |
| 2026-04-21 19:09 | 61.87758 | 34.15429 | 155 ft | 3 kts | 112° |
| 2026-04-21 19:09 | 61.87768 | 34.15377 | 155 ft | 4 kts | 111° |
| 2026-04-21 19:09 | 61.87778 | 34.15324 | 155 ft | 4 kts | 107° |
| 2026-04-21 19:10 | 61.87782 | 34.15294 | 155 ft | 2 kts | 105° |
| 2026-04-21 19:10 | 61.87783 | 34.15285 | 155 ft | 0 kts | 105° |
| 2026-04-21 19:13 | 61.87782 | 34.15289 | 155 ft | 1 kts | 103° |
| 2026-04-21 19:13 | 61.87789 | 34.15324 | 155 ft | 4 kts | 50° |
| 2026-04-21 19:13 | 61.87832 | 34.15343 | 154 ft | 8 kts | 329° |
| 2026-04-21 19:14 | 61.87866 | 34.15207 | 154 ft | 13 kts | 292° |
| 2026-04-21 19:14 | 61.87889 | 34.15092 | 155 ft | 10 kts | 292° |
| 2026-04-21 19:14 | 61.87933 | 34.14963 | 154 ft | 11 kts | 350° |
| 2026-04-21 19:14 | 61.87960 | 34.14975 | 153 ft | 0 kts | 20° |
| 2026-04-21 19:15 | 61.87961 | 34.14975 | 153 ft | 5 kts | 20° |
| 2026-04-21 19:15 | 61.88238 | 34.15222 | 152 ft | 80 kts | 23° |
| 2026-04-21 19:15 | 61.88964 | 34.15873 | 150 ft | 144 kts | 24° |
| 2026-04-21 19:15 | 61.90033 | 34.16788 | 386 ft | 177 kts | 21° |
| 2026-04-21 19:16 | 61.91191 | 34.17815 | 1117 ft | 186 kts | 23° |
| 2026-04-21 19:16 | 61.92413 | 34.18982 | 1754 ft | 198 kts | 31° |
| 2026-04-21 19:16 | 61.93357 | 34.21209 | 2149 ft | 217 kts | 70° |
| 2026-04-21 19:16 | 61.93375 | 34.24494 | 2406 ft | 235 kts | 112° |
| 2026-04-21 19:17 | 61.90676 | 34.27796 | 3505 ft | 247 kts | 187° |
| 2026-04-21 19:17 | 61.88955 | 34.27534 | 4126 ft | 251 kts | 170° |
| 2026-04-21 19:17 | 61.87246 | 34.28460 | 4736 ft | 257 kts | 164° |
| 2026-04-21 19:18 | 61.85498 | 34.29468 | 5461 ft | 262 kts | 165° |
| 2026-04-21 19:18 | 61.83731 | 34.30480 | 6218 ft | 265 kts | 164° |
| 2026-04-21 19:18 | 61.81903 | 34.31536 | 6805 ft | 277 kts | 164° |
| 2026-04-21 19:18 | 61.80026 | 34.32627 | 7540 ft | 282 kts | 164° |
| 2026-04-21 19:19 | 61.78118 | 34.33738 | 8274 ft | 286 kts | 164° |
| 2026-04-21 19:19 | 61.76208 | 34.34851 | 9021 ft | 290 kts | 163° |
| 2026-04-21 19:19 | 61.74249 | 34.35992 | 9730 ft | 294 kts | 163° |
| 2026-04-21 19:19 | 61.72245 | 34.37161 | 10270 ft | 306 kts | 163° |
| 2026-04-21 19:20 | 61.70105 | 34.38407 | 10468 ft | 330 kts | 163° |
| 2026-04-21 19:20 | 61.67817 | 34.39741 | 10656 ft | 353 kts | 163° |
| 2026-04-21 19:20 | 61.65384 | 34.41156 | 10986 ft | 369 kts | 163° |
| 2026-04-21 19:20 | 61.62893 | 34.42601 | 11679 ft | 373 kts | 163° |
| 2026-04-21 19:21 | 61.60378 | 34.44061 | 12411 ft | 376 kts | 163° |
| 2026-04-21 19:21 | 61.57847 | 34.45525 | 13073 ft | 379 kts | 163° |
| 2026-04-21 19:21 | 61.55321 | 34.47044 | 13673 ft | 384 kts | 160° |
| 2026-04-21 19:21 | 61.52823 | 34.49084 | 14297 ft | 387 kts | 154° |
| 2026-04-21 19:22 | 61.50356 | 34.51410 | 14903 ft | 391 kts | 153° |
| 2026-04-21 19:22 | 61.47875 | 34.53817 | 15511 ft | 395 kts | 153° |
| 2026-04-21 19:22 | 61.45363 | 34.56221 | 16125 ft | 398 kts | 153° |
| 2026-04-21 19:22 | 61.42815 | 34.58607 | 16696 ft | 403 kts | 153° |
| 2026-04-21 19:23 | 61.40238 | 34.60980 | 17231 ft | 407 kts | 153° |
| 2026-04-21 19:23 | 61.37627 | 34.63358 | 17796 ft | 411 kts | 153° |
| 2026-04-21 19:23 | 61.34994 | 34.65745 | 18354 ft | 414 kts | 153° |
| 2026-04-21 19:23 | 61.32339 | 34.68146 | 18873 ft | 418 kts | 153° |
| 2026-04-21 19:24 | 61.29682 | 34.70671 | 19380 ft | 419 kts | 146° |
| 2026-04-21 19:24 | 61.27446 | 34.74457 | 19861 ft | 413 kts | 126° |
| 2026-04-21 19:24 | 61.25885 | 34.79304 | 20406 ft | 404 kts | 109° |
| 2026-04-21 19:24 | 61.24874 | 34.84708 | 20960 ft | 402 kts | 104° |
| 2026-04-21 19:25 | 61.23944 | 34.90218 | 21425 ft | 405 kts | 103° |
| 2026-04-21 19:25 | 61.23023 | 34.95771 | 21901 ft | 407 kts | 103° |
| 2026-04-21 19:25 | 61.22091 | 35.01341 | 22370 ft | 410 kts | 103° |
| 2026-04-21 19:25 | 61.21140 | 35.06927 | 22829 ft | 412 kts | 104° |
| 2026-04-21 19:26 | 61.20167 | 35.12561 | 23259 ft | 415 kts | 104° |
| 2026-04-21 19:26 | 61.19179 | 35.18212 | 23682 ft | 418 kts | 104° |
| 2026-04-21 19:26 | 61.18195 | 35.23809 | 24098 ft | 420 kts | 104° |
| 2026-04-21 19:26 | 61.17187 | 35.29509 | 24501 ft | 422 kts | 104° |
| 2026-04-21 19:27 | 61.16172 | 35.35239 | 24895 ft | 424 kts | 104° |
| 2026-04-21 19:27 | 61.15151 | 35.40984 | 25314 ft | 426 kts | 104° |
| 2026-04-21 19:27 | 61.14122 | 35.46754 | 25706 ft | 428 kts | 104° |
| 2026-04-21 19:27 | 61.13087 | 35.52542 | 26058 ft | 430 kts | 104° |
| 2026-04-21 19:28 | 61.12043 | 35.58369 | 26416 ft | 432 kts | 104° |
| 2026-04-21 19:28 | 61.10993 | 35.64208 | 26764 ft | 433 kts | 104° |
| 2026-04-21 19:28 | 61.09939 | 35.70051 | 27082 ft | 435 kts | 104° |
| 2026-04-21 19:28 | 61.08889 | 35.75865 | 27397 ft | 437 kts | 104° |
| 2026-04-21 19:29 | 61.07826 | 35.81760 | 27712 ft | 439 kts | 103° |
| 2026-04-21 19:29 | 61.06757 | 35.87682 | 28048 ft | 440 kts | 103° |
| 2026-04-21 19:29 | 61.05685 | 35.93614 | 28343 ft | 441 kts | 103° |
| 2026-04-21 19:29 | 61.04602 | 35.99582 | 28613 ft | 444 kts | 104° |
| 2026-04-21 19:30 | 61.03516 | 36.05550 | 28905 ft | 445 kts | 103° |
| 2026-04-21 19:30 | 61.02421 | 36.11544 | 29174 ft | 447 kts | 103° |
| 2026-04-21 19:30 | 61.01322 | 36.17547 | 29502 ft | 446 kts | 103° |
| 2026-04-21 19:30 | 61.00225 | 36.23514 | 29901 ft | 445 kts | 103° |
| 2026-04-21 19:31 | 60.99078 | 36.29425 | 30296 ft | 447 kts | 109° |
| 2026-04-21 19:31 | 60.97383 | 36.34817 | 30570 ft | 462 kts | 124° |
| 2026-04-21 19:31 | 60.95018 | 36.39424 | 30843 ft | 475 kts | 138° |
| 2026-04-21 19:31 | 60.92130 | 36.42869 | 31178 ft | 483 kts | 148° |
| 2026-04-21 19:32 | 60.89109 | 36.45903 | 31572 ft | 481 kts | 149° |
| 2026-04-21 19:32 | 60.86089 | 36.48861 | 31875 ft | 481 kts | 149° |
| 2026-04-21 19:32 | 60.83069 | 36.51818 | 32125 ft | 481 kts | 149° |
| 2026-04-21 19:32 | 60.80059 | 36.54793 | 32411 ft | 480 kts | 149° |
| 2026-04-21 19:33 | 60.78060 | 36.56786 | 32596 ft | 480 kts | 149° |
| 2026-04-21 19:33 | 60.74092 | 36.60777 | 32951 ft | 479 kts | 149° |
| 2026-04-21 19:33 | 60.71106 | 36.63795 | 33247 ft | 478 kts | 149° |
| 2026-04-21 19:33 | 60.68130 | 36.66803 | 33526 ft | 477 kts | 149° |
| 2026-04-21 19:34 | 60.65156 | 36.69807 | 33766 ft | 477 kts | 149° |
| 2026-04-21 19:34 | 60.62186 | 36.72800 | 34023 ft | 476 kts | 149° |
| 2026-04-21 19:34 | 60.59215 | 36.75786 | 34290 ft | 475 kts | 149° |
| 2026-04-21 19:34 | 60.56246 | 36.78761 | 34538 ft | 474 kts | 149° |
| 2026-04-21 19:35 | 60.53316 | 36.81692 | 34733 ft | 475 kts | 150° |
| 2026-04-21 19:35 | 60.47370 | 36.87619 | 34910 ft | 479 kts | 150° |
| 2026-04-21 19:36 | 60.41395 | 36.93547 | 34919 ft | 476 kts | 150° |
| 2026-04-21 19:36 | 60.35469 | 36.99401 | 34925 ft | 472 kts | 150° |
| 2026-04-21 19:37 | 60.29582 | 37.05197 | 34921 ft | 470 kts | 150° |
| 2026-04-21 19:37 | 60.23738 | 37.10925 | 34917 ft | 469 kts | 150° |
| 2026-04-21 19:38 | 60.17867 | 37.16660 | 34923 ft | 469 kts | 150° |
| 2026-04-21 19:38 | 60.12985 | 37.21412 | 34919 ft | 469 kts | 150° |
| 2026-04-21 19:39 | 60.06096 | 37.28091 | 34917 ft | 472 kts | 150° |
| 2026-04-21 19:39 | 60.00156 | 37.33823 | 34922 ft | 474 kts | 150° |
| 2026-04-21 19:40 | 59.94192 | 37.39555 | 34925 ft | 476 kts | 151° |
| 2026-04-21 19:40 | 59.88242 | 37.45251 | 34917 ft | 478 kts | 151° |
| 2026-04-21 19:41 | 59.82217 | 37.50997 | 34915 ft | 480 kts | 151° |
| 2026-04-21 19:41 | 59.76186 | 37.56722 | 34915 ft | 480 kts | 151° |
| 2026-04-21 19:42 | 59.70157 | 37.62428 | 34913 ft | 479 kts | 151° |
| 2026-04-21 19:42 | 59.64147 | 37.68087 | 34916 ft | 478 kts | 151° |
| 2026-04-21 19:43 | 59.58196 | 37.73657 | 34907 ft | 474 kts | 151° |
| 2026-04-21 19:43 | 59.52257 | 37.79197 | 34907 ft | 471 kts | 151° |
| 2026-04-21 19:44 | 59.46352 | 37.84694 | 34918 ft | 469 kts | 151° |
| 2026-04-21 19:44 | 59.40444 | 37.90173 | 34915 ft | 469 kts | 151° |
| 2026-04-21 19:45 | 59.34534 | 37.95632 | 34920 ft | 470 kts | 152° |
| 2026-04-21 19:45 | 59.28455 | 38.00251 | 34912 ft | 476 kts | 165° |
| 2026-04-21 19:46 | 59.21825 | 38.01263 | 34912 ft | 482 kts | 183° |
| 2026-04-21 19:46 | 59.15134 | 38.00048 | 34920 ft | 484 kts | 185° |
| 2026-04-21 19:47 | 59.08406 | 37.98806 | 34917 ft | 485 kts | 184° |
| 2026-04-21 19:47 | 59.01720 | 37.97697 | 34913 ft | 486 kts | 184° |
| 2026-04-21 19:48 | 58.94971 | 37.96621 | 34911 ft | 486 kts | 184° |
| 2026-04-21 19:48 | 58.88227 | 37.95540 | 34905 ft | 485 kts | 184° |
| 2026-04-21 19:49 | 58.81559 | 37.94476 | 34906 ft | 482 kts | 184° |
| 2026-04-21 19:49 | 58.74870 | 37.93415 | 34907 ft | 480 kts | 184° |
| 2026-04-21 19:50 | 58.69344 | 37.92541 | 34904 ft | 478 kts | 184° |
| 2026-04-21 19:50 | 58.61602 | 37.91413 | 34905 ft | 476 kts | 183° |
| 2026-04-21 19:51 | 58.55040 | 37.90545 | 34909 ft | 474 kts | 183° |
| 2026-04-21 19:51 | 58.48467 | 37.89673 | 34909 ft | 473 kts | 183° |
| 2026-04-21 19:52 | 58.41894 | 37.88791 | 34720 ft | 477 kts | 183° |
| 2026-04-21 19:52 | 58.38581 | 37.88343 | 34471 ft | 476 kts | 184° |
| 2026-04-21 19:52 | 58.36393 | 37.88048 | 34297 ft | 474 kts | 184° |
| 2026-04-21 19:52 | 58.33109 | 37.87608 | 34051 ft | 471 kts | 184° |
| 2026-04-21 19:53 | 58.29847 | 37.87171 | 33945 ft | 470 kts | 184° |
| 2026-04-21 19:53 | 58.23306 | 37.86298 | 33910 ft | 471 kts | 184° |
| 2026-04-21 19:54 | 58.16745 | 37.85427 | 33907 ft | 472 kts | 184° |
| 2026-04-21 19:54 | 58.10215 | 37.84562 | 33907 ft | 472 kts | 184° |
| 2026-04-21 19:55 | 58.03656 | 37.83694 | 33906 ft | 472 kts | 184° |
| 2026-04-21 19:55 | 57.97088 | 37.82829 | 33907 ft | 472 kts | 184° |
| 2026-04-21 19:56 | 57.90577 | 37.81976 | 33904 ft | 471 kts | 184° |
| 2026-04-21 19:56 | 57.84035 | 37.81126 | 33907 ft | 471 kts | 184° |
| 2026-04-21 19:57 | 57.77500 | 37.80230 | 33915 ft | 470 kts | 184° |
| 2026-04-21 19:57 | 57.70978 | 37.79284 | 33909 ft | 466 kts | 184° |
| 2026-04-21 19:57 | 57.67798 | 37.78825 | 33897 ft | 451 kts | 184° |
| 2026-04-21 19:58 | 57.64715 | 37.78384 | 33883 ft | 437 kts | 184° |
| 2026-04-21 19:58 | 57.61727 | 37.77959 | 33886 ft | 424 kts | 184° |
| 2026-04-21 19:58 | 57.58830 | 37.77546 | 33801 ft | 414 kts | 184° |
| 2026-04-21 19:58 | 57.55952 | 37.77141 | 33317 ft | 414 kts | 184° |
| 2026-04-21 19:59 | 57.53075 | 37.76736 | 32890 ft | 413 kts | 184° |
| 2026-04-21 19:59 | 57.50209 | 37.76333 | 32448 ft | 413 kts | 184° |
| 2026-04-21 19:59 | 57.47384 | 37.75935 | 32015 ft | 412 kts | 184° |
| 2026-04-21 19:59 | 57.44525 | 37.75543 | 31569 ft | 411 kts | 184° |
| 2026-04-21 20:00 | 57.41673 | 37.75169 | 31132 ft | 411 kts | 184° |
| 2026-04-21 20:00 | 57.38826 | 37.74803 | 30691 ft | 410 kts | 184° |
| 2026-04-21 20:00 | 57.35972 | 37.74438 | 30248 ft | 410 kts | 184° |
| 2026-04-21 20:00 | 57.33122 | 37.74071 | 29807 ft | 412 kts | 184° |
| 2026-04-21 20:01 | 57.30224 | 37.73698 | 29298 ft | 422 kts | 184° |
| 2026-04-21 20:01 | 57.27265 | 37.73315 | 28756 ft | 429 kts | 184° |
| 2026-04-21 20:01 | 57.24275 | 37.72929 | 28218 ft | 431 kts | 184° |
| 2026-04-21 20:01 | 57.21281 | 37.72543 | 27670 ft | 430 kts | 184° |
| 2026-04-21 20:02 | 57.18300 | 37.72160 | 27119 ft | 430 kts | 184° |
| 2026-04-21 20:02 | 57.15372 | 37.71785 | 26895 ft | 421 kts | 184° |
| 2026-04-21 20:02 | 57.12484 | 37.71415 | 26719 ft | 411 kts | 184° |
| 2026-04-21 20:02 | 57.09689 | 37.70593 | 26338 ft | 406 kts | 200° |
| 2026-04-21 20:03 | 57.07061 | 37.68704 | 25896 ft | 404 kts | 204° |
| 2026-04-21 20:03 | 57.04472 | 37.66706 | 25459 ft | 402 kts | 204° |
| 2026-04-21 20:03 | 57.01894 | 37.64708 | 25030 ft | 401 kts | 204° |
| 2026-04-21 20:03 | 56.99325 | 37.62742 | 24621 ft | 398 kts | 203° |
| 2026-04-21 20:04 | 56.96768 | 37.60811 | 24228 ft | 396 kts | 203° |
| 2026-04-21 20:04 | 56.94225 | 37.58911 | 23845 ft | 393 kts | 203° |
| 2026-04-21 20:04 | 56.91712 | 37.57049 | 23627 ft | 387 kts | 203° |
| 2026-04-21 20:04 | 56.89237 | 37.55221 | 23436 ft | 381 kts | 203° |
| 2026-04-21 20:05 | 56.86758 | 37.53393 | 23287 ft | 388 kts | 203° |
| 2026-04-21 20:05 | 56.84262 | 37.51557 | 23113 ft | 392 kts | 202° |
| 2026-04-21 20:05 | 56.81735 | 37.49702 | 22924 ft | 389 kts | 202° |
| 2026-04-21 20:05 | 56.79231 | 37.47866 | 22743 ft | 387 kts | 202° |
| 2026-04-21 20:06 | 56.76737 | 37.46038 | 22578 ft | 386 kts | 202° |
| 2026-04-21 20:06 | 56.74243 | 37.44213 | 22408 ft | 386 kts | 202° |
| 2026-04-21 20:06 | 56.71750 | 37.42392 | 22237 ft | 386 kts | 202° |
| 2026-04-21 20:06 | 56.69254 | 37.40572 | 22067 ft | 386 kts | 202° |
| 2026-04-21 20:07 | 56.66764 | 37.38758 | 21893 ft | 385 kts | 203° |
| 2026-04-21 20:07 | 56.64280 | 37.36902 | 21678 ft | 386 kts | 204° |
| 2026-04-21 20:07 | 56.61802 | 37.35015 | 21465 ft | 385 kts | 204° |
| 2026-04-21 20:07 | 56.59331 | 37.33130 | 21251 ft | 385 kts | 204° |
| 2026-04-21 20:08 | 56.56862 | 37.31256 | 21035 ft | 383 kts | 204° |
| 2026-04-21 20:08 | 56.54408 | 37.29404 | 20824 ft | 381 kts | 203° |
| 2026-04-21 20:08 | 56.51985 | 37.27626 | 20613 ft | 380 kts | 202° |
| 2026-04-21 20:08 | 56.49527 | 37.25929 | 20405 ft | 377 kts | 201° |
| 2026-04-21 20:09 | 56.47074 | 37.24256 | 20196 ft | 375 kts | 201° |
| 2026-04-21 20:09 | 56.44638 | 37.22586 | 19991 ft | 373 kts | 201° |
| 2026-04-21 20:09 | 56.42218 | 37.20900 | 19880 ft | 372 kts | 202° |
| 2026-04-21 20:09 | 56.39805 | 37.19160 | 19688 ft | 372 kts | 203° |
| 2026-04-21 20:10 | 56.37416 | 37.17418 | 19534 ft | 369 kts | 203° |
| 2026-04-21 20:10 | 56.35037 | 37.15688 | 19382 ft | 369 kts | 202° |
| 2026-04-21 20:10 | 56.32648 | 37.13960 | 19237 ft | 369 kts | 202° |
| 2026-04-21 20:10 | 56.30266 | 37.12247 | 19088 ft | 368 kts | 202° |
| 2026-04-21 20:11 | 56.27854 | 37.10685 | 18944 ft | 368 kts | 198° |
| 2026-04-21 20:11 | 56.25401 | 37.09373 | 18797 ft | 367 kts | 196° |
| 2026-04-21 20:11 | 56.22934 | 37.08139 | 18653 ft | 367 kts | 196° |
| 2026-04-21 20:11 | 56.20469 | 37.06916 | 18506 ft | 367 kts | 196° |
| 2026-04-21 20:12 | 56.18042 | 37.05695 | 18359 ft | 366 kts | 196° |
| 2026-04-21 20:12 | 56.15593 | 37.04446 | 18220 ft | 366 kts | 197° |
| 2026-04-21 20:12 | 56.13142 | 37.03184 | 18067 ft | 364 kts | 197° |
| 2026-04-21 20:12 | 56.10727 | 37.01935 | 17884 ft | 358 kts | 197° |
| 2026-04-21 20:13 | 56.08342 | 37.00699 | 17764 ft | 357 kts | 197° |
| 2026-04-21 20:13 | 56.05947 | 36.99459 | 17638 ft | 360 kts | 197° |
| 2026-04-21 20:13 | 56.03530 | 36.98208 | 17499 ft | 362 kts | 197° |
| 2026-04-21 20:13 | 56.01112 | 36.96957 | 17354 ft | 360 kts | 197° |
| 2026-04-21 20:14 | 55.98744 | 36.95734 | 17207 ft | 358 kts | 197° |
| 2026-04-21 20:14 | 55.96357 | 36.94503 | 17071 ft | 356 kts | 196° |
| 2026-04-21 20:14 | 55.93973 | 36.93334 | 16922 ft | 355 kts | 191° |
| 2026-04-21 20:14 | 55.91515 | 36.93162 | 16692 ft | 355 kts | 174° |
| 2026-04-21 20:15 | 55.89058 | 36.93544 | 16451 ft | 354 kts | 173° |
| 2026-04-21 20:15 | 55.86608 | 36.93951 | 16206 ft | 352 kts | 173° |
| 2026-04-21 20:15 | 55.84175 | 36.94336 | 15962 ft | 350 kts | 174° |
| 2026-04-21 20:15 | 55.81756 | 36.94695 | 15722 ft | 347 kts | 174° |
| 2026-04-21 20:16 | 55.79342 | 36.95036 | 15480 ft | 346 kts | 174° |
| 2026-04-21 20:16 | 55.76974 | 36.95361 | 15241 ft | 343 kts | 174° |
| 2026-04-21 20:16 | 55.74608 | 36.95683 | 14999 ft | 338 kts | 174° |
| 2026-04-21 20:16 | 55.72283 | 36.96078 | 14691 ft | 335 kts | 171° |
| 2026-04-21 20:17 | 55.69989 | 36.96708 | 14343 ft | 333 kts | 168° |
| 2026-04-21 20:17 | 55.67715 | 36.97402 | 14005 ft | 331 kts | 168° |
| 2026-04-21 20:17 | 55.65451 | 36.98076 | 13656 ft | 330 kts | 169° |
| 2026-04-21 20:17 | 55.63185 | 36.98723 | 13315 ft | 329 kts | 169° |
| 2026-04-21 20:18 | 55.61687 | 36.99144 | 13086 ft | 328 kts | 169° |
| 2026-04-21 20:18 | 55.58667 | 36.99895 | 12624 ft | 327 kts | 174° |
| 2026-04-21 20:18 | 55.56391 | 36.99989 | 12282 ft | 327 kts | 179° |
| 2026-04-21 20:18 | 55.54123 | 36.99915 | 11967 ft | 324 kts | 179° |
| 2026-04-21 20:19 | 55.51932 | 36.99835 | 11919 ft | 314 kts | 179° |
| 2026-04-21 20:19 | 55.49772 | 36.99780 | 11544 ft | 313 kts | 179° |
| 2026-04-21 20:19 | 55.47556 | 36.99758 | 11059 ft | 319 kts | 178° |
| 2026-04-21 20:19 | 55.45322 | 36.99750 | 10635 ft | 321 kts | 178° |
| 2026-04-21 20:20 | 55.43122 | 36.99747 | 10393 ft | 310 kts | 178° |
| 2026-04-21 20:20 | 55.40964 | 36.99743 | 10015 ft | 306 kts | 179° |
| 2026-04-21 20:20 | 55.38883 | 36.99544 | 9712 ft | 300 kts | 184° |
| 2026-04-21 20:20 | 55.36834 | 36.99127 | 9417 ft | 293 kts | 185° |
| 2026-04-21 20:21 | 55.34822 | 36.98689 | 9126 ft | 288 kts | 185° |
| 2026-04-21 20:21 | 55.32838 | 36.98280 | 8833 ft | 286 kts | 185° |
| 2026-04-21 20:21 | 55.30857 | 36.97892 | 8566 ft | 287 kts | 184° |
| 2026-04-21 20:21 | 55.28863 | 36.97506 | 8282 ft | 288 kts | 184° |
| 2026-04-21 20:22 | 55.26873 | 36.97224 | 8040 ft | 284 kts | 174° |
| 2026-04-21 20:22 | 55.23081 | 36.98997 | 8001 ft | 281 kts | 159° |
| 2026-04-21 20:22 | 55.21214 | 36.99999 | 7993 ft | 279 kts | 160° |
| 2026-04-21 20:23 | 55.19348 | 37.00981 | 8000 ft | 280 kts | 160° |
| 2026-04-21 20:23 | 55.17475 | 37.01957 | 7997 ft | 281 kts | 160° |
| 2026-04-21 20:23 | 55.15664 | 37.03085 | 7990 ft | 278 kts | 146° |
| 2026-04-21 20:23 | 55.14290 | 37.05315 | 8011 ft | 266 kts | 117° |
| 2026-04-21 20:24 | 55.13653 | 37.08275 | 7930 ft | 260 kts | 92° |
| 2026-04-21 20:24 | 55.13744 | 37.11368 | 7750 ft | 251 kts | 72° |
| 2026-04-21 20:24 | 55.14430 | 37.14115 | 7594 ft | 246 kts | 59° |
| 2026-04-21 20:24 | 55.15272 | 37.16720 | 7420 ft | 245 kts | 58° |
| 2026-04-21 20:25 | 55.16122 | 37.19313 | 7265 ft | 246 kts | 58° |
| 2026-04-21 20:25 | 55.16978 | 37.21928 | 7102 ft | 248 kts | 58° |
| 2026-04-21 20:25 | 55.17831 | 37.24554 | 6934 ft | 248 kts | 58° |
| 2026-04-21 20:25 | 55.18681 | 37.27186 | 6766 ft | 248 kts | 58° |
| 2026-04-21 20:26 | 55.19525 | 37.29805 | 6604 ft | 246 kts | 58° |
| 2026-04-21 20:26 | 55.20362 | 37.32408 | 6440 ft | 245 kts | 58° |
| 2026-04-21 20:26 | 55.21303 | 37.34794 | 6259 ft | 238 kts | 40° |
| 2026-04-21 20:26 | 55.22685 | 37.36218 | 6119 ft | 226 kts | 19° |
| 2026-04-21 20:27 | 55.24202 | 37.36693 | 5973 ft | 220 kts | 5° |
| 2026-04-21 20:27 | 55.25715 | 37.36788 | 5837 ft | 217 kts | 3° |
| 2026-04-21 20:27 | 55.27226 | 37.36844 | 5704 ft | 217 kts | 4° |
| 2026-04-21 20:27 | 55.28730 | 37.36917 | 5564 ft | 216 kts | 4° |
| 2026-04-21 20:28 | 55.30231 | 37.36992 | 5412 ft | 215 kts | 3° |
| 2026-04-21 20:28 | 55.31697 | 37.36469 | 5268 ft | 220 kts | 335° |
| 2026-04-21 20:28 | 55.32921 | 37.34835 | 5147 ft | 224 kts | 319° |
| 2026-04-21 20:28 | 55.34003 | 37.32848 | 5005 ft | 226 kts | 317° |
| 2026-04-21 20:29 | 55.35080 | 37.30819 | 4856 ft | 227 kts | 317° |
| 2026-04-21 20:29 | 55.36166 | 37.28784 | 4706 ft | 228 kts | 317° |
| 2026-04-21 20:29 | 55.37238 | 37.26779 | 4556 ft | 227 kts | 317° |
| 2026-04-21 20:29 | 55.38322 | 37.24749 | 4399 ft | 227 kts | 317° |
| 2026-04-21 20:30 | 55.39404 | 37.22729 | 4249 ft | 226 kts | 317° |
| 2026-04-21 20:30 | 55.40490 | 37.20710 | 4103 ft | 226 kts | 317° |
| 2026-04-21 20:30 | 55.41567 | 37.18698 | 3956 ft | 226 kts | 317° |
| 2026-04-21 20:30 | 55.42646 | 37.16687 | 3807 ft | 226 kts | 316° |
| 2026-04-21 20:31 | 55.43728 | 37.14670 | 3659 ft | 225 kts | 317° |
| 2026-04-21 20:31 | 55.44871 | 37.12826 | 3515 ft | 221 kts | 323° |
| 2026-04-21 20:31 | 55.46048 | 37.11090 | 3364 ft | 220 kts | 323° |
| 2026-04-21 20:31 | 55.47215 | 37.09365 | 3220 ft | 216 kts | 323° |
| 2026-04-21 20:32 | 55.48357 | 37.07668 | 3086 ft | 215 kts | 323° |
| 2026-04-21 20:32 | 55.49552 | 37.06190 | 3008 ft | 211 kts | 339° |
| 2026-04-21 20:32 | 55.50894 | 37.05318 | 3022 ft | 199 kts | 344° |
| 2026-04-21 20:32 | 55.52166 | 37.04588 | 2999 ft | 184 kts | 345° |
| 2026-04-21 20:33 | 55.53351 | 37.04282 | 2894 ft | 168 kts | 20° |
| 2026-04-21 20:33 | 55.54228 | 37.05584 | 2826 ft | 173 kts | 57° |
| 2026-04-21 20:33 | 55.54823 | 37.07422 | 2609 ft | 168 kts | 63° |
| 2026-04-21 20:33 | 55.55347 | 37.09222 | 2375 ft | 161 kts | 68° |
| 2026-04-21 20:34 | 55.55787 | 37.11069 | 2164 ft | 166 kts | 71° |
| 2026-04-21 20:34 | 55.56199 | 37.12913 | 1961 ft | 162 kts | 66° |
| 2026-04-21 20:34 | 55.56606 | 37.14738 | 1738 ft | 158 kts | 67° |
| 2026-04-21 20:34 | 55.57008 | 37.16540 | 1533 ft | 157 kts | 67° |
| 2026-04-21 20:35 | 55.57396 | 37.18298 | 1352 ft | 159 kts | 67° |
| 2026-04-21 20:35 | 55.57801 | 37.20127 | 1149 ft | 162 kts | 67° |
| 2026-04-21 20:35 | 55.58232 | 37.21992 | 926 ft | 164 kts | 66° |
| 2026-04-21 20:35 | 55.58643 | 37.23851 | 730 ft | 159 kts | 68° |
| 2026-04-21 20:36 | 55.59037 | 37.25607 | 671 ft | 147 kts | 68° |
| 2026-04-21 20:36 | 55.59359 | 37.27051 | 668 ft | 96 kts | 69° |
| 2026-04-21 20:36 | 55.59525 | 37.27788 | 680 ft | 33 kts | 68° |
| 2026-04-21 20:36 | 55.59638 | 37.28104 | 680 ft | 30 kts | 45° |
| 2026-04-21 20:37 | 55.59741 | 37.28264 | 679 ft | 24 kts | 38° |
| 2026-04-21 20:37 | 55.59792 | 37.28335 | 679 ft | 0 kts | 38° |
| 2026-04-21 20:38 | 55.59793 | 37.28336 | 679 ft | 1 kts | 38° |
| 2026-04-21 20:38 | 55.59819 | 37.28372 | 677 ft | 10 kts | 38° |
| 2026-04-21 20:38 | 55.59894 | 37.28397 | 678 ft | 14 kts | 330° |
| 2026-04-21 20:38 | 55.59937 | 37.28262 | 678 ft | 13 kts | 273° |
| 2026-04-21 20:39 | 55.59935 | 37.28093 | 679 ft | 13 kts | 272° |
| 2026-04-21 20:39 | 55.59962 | 37.27987 | 677 ft | 10 kts | 336° |
| 2026-04-21 20:39 | 55.60017 | 37.28002 | 679 ft | 0 kts | 17° |